Time;durP1;ratioP1;P1;durP2;ratioP2;P2;SDS_P1;SDS_P2;PMS_P1;PMS_P2;Temp;Humidity;BMP_temperature;BMP_pressure;BME280_temperature;BME280_humidity;BME280_pressure;Samples;Min_cycle;Max_cycle;Signal;HPM_P1;HPM_P2
2022/09/08 00:01:52;;;;;;;15.20;6.00;;;;;;;15.86;70.55;99971.86;105583;1272;22552;-65
2022/09/08 00:04:23;;;;;;;16.80;7.10;;;;;;;15.84;70.68;99972.95;105757;1273;27479;-65
2022/09/08 00:06:55;;;;;;;18.10;7.60;;;;;;;15.83;70.92;99972.48;105642;1273;25334;-65
2022/09/08 00:09:26;;;;;;;15.20;6.20;;;;;;;15.81;71.20;99977.00;105745;1273;25494;-64
2022/09/08 00:11:58;;;;;;;19.30;7.30;;;;;;;15.79;71.23;99984.23;105713;1273;24284;-63
2022/09/08 00:14:30;;;;;;;16.30;6.00;;;;;;;15.76;71.23;99986.86;105933;1273;22567;-64
2022/09/08 00:17:03;;;;;;;16.70;7.30;;;;;;;15.75;71.42;99987.48;105783;1272;24234;-65
2022/09/08 00:19:35;;;;;;;15.50;6.90;;;;;;;15.75;71.48;99986.98;105868;1271;22546;-64
2022/09/08 00:22:07;;;;;;;17.50;7.20;;;;;;;15.74;71.63;99984.93;105719;1273;24305;-69
2022/09/08 00:24:38;;;;;;;16.90;7.20;;;;;;;15.74;71.70;99983.04;105748;1273;22632;-64
2022/09/08 00:27:10;;;;;;;15.00;6.10;;;;;;;15.73;72.03;99985.60;105883;1273;24321;-64
2022/09/08 00:29:41;;;;;;;18.50;7.30;;;;;;;15.72;72.04;99980.39;105698;1273;25357;-66
2022/09/08 00:32:14;;;;;;;22.10;7.60;;;;;;;15.70;71.96;99974.62;105678;1272;24295;-64
2022/09/08 00:34:46;;;;;;;20.20;7.00;;;;;;;15.69;72.10;99968.79;105748;1273;22619;-66
2022/09/08 00:37:18;;;;;;;21.60;7.70;;;;;;;15.68;72.16;99964.91;105684;1273;22758;-65
2022/09/08 00:39:50;;;;;;;21.70;8.40;;;;;;;15.67;72.27;99963.13;105822;1273;25440;-65
2022/09/08 00:42:22;;;;;;;22.40;7.30;;;;;;;15.66;72.52;99961.15;105776;1273;25385;-65
2022/09/08 00:44:55;;;;;;;18.90;8.20;;;;;;;15.65;72.47;99962.02;105885;1273;22526;-65
2022/09/08 00:47:30;;;;;;;17.90;7.80;;;;;;;15.65;72.57;99955.46;105709;1273;23223;-65
2022/09/08 00:50:06;;;;;;;17.60;8.40;;;;;;;15.64;72.80;99960.48;105667;1273;25328;-65
2022/09/08 00:52:43;;;;;;;18.00;7.20;;;;;;;15.63;72.99;99967.95;105658;1273;25724;-64
2022/09/08 00:55:15;;;;;;;17.80;7.40;;;;;;;15.61;73.00;99970.94;105791;1273;24310;-64
2022/09/08 00:57:47;;;;;;;20.00;7.00;;;;;;;15.60;73.18;99963.17;105664;1272;22550;-65
2022/09/08 01:00:20;;;;;;;17.90;7.60;;;;;;;15.59;73.06;99962.20;105683;1273;25393;-64
2022/09/08 01:02:52;;;;;;;18.80;7.80;;;;;;;15.58;73.19;99957.70;105913;1273;25491;-64
2022/09/08 01:05:27;;;;;;;19.90;8.20;;;;;;;15.55;73.22;99954.50;105638;1273;24392;-65
2022/09/08 01:14:09;;;;;;;18.60;7.20;;;;;;;15.49;73.62;99958.72;105573;1273;22573;-64
2022/09/08 01:16:44;;;;;;;20.60;8.30;;;;;;;15.47;73.50;99959.66;105752;1273;22690;-65
2022/09/08 01:19:19;;;;;;;21.20;8.50;;;;;;;15.46;73.67;99962.44;105727;1272;24211;-65
2022/09/08 01:22:05;;;;;;;19.80;7.70;;;;;;;15.44;73.71;99966.05;105811;1273;25307;-64
2022/09/08 01:24:46;;;;;;;18.70;7.30;;;;;;;15.43;73.81;99967.25;105836;1273;23019;-64
2022/09/08 01:27:23;;;;;;;20.90;7.60;;;;;;;15.41;73.84;99967.95;105959;1273;22556;-64
2022/09/08 01:30:00;;;;;;;17.60;7.40;;;;;;;15.39;73.62;99965.61;105576;1273;22768;-65
2022/09/08 01:32:41;;;;;;;22.50;8.30;;;;;;;15.37;74.02;99959.77;105799;1273;22597;-65
2022/09/08 01:35:27;;;;;;;15.40;6.90;;;;;;;15.36;74.07;99958.65;105722;1273;25321;-64
2022/09/08 01:37:58;;;;;;;15.30;7.40;;;;;;;15.34;74.18;99950.80;105726;1273;25430;-64
2022/09/08 01:40:30;;;;;;;19.70;9.00;;;;;;;15.32;74.18;99948.70;105654;1272;25371;-64
2022/09/08 01:43:01;;;;;;;18.30;7.20;;;;;;;15.31;74.19;99950.81;105732;1273;25346;-64
2022/09/08 01:45:33;;;;;;;19.80;7.90;;;;;;;15.29;74.41;99952.10;105710;1273;22552;-64
2022/09/08 01:48:09;;;;;;;16.70;7.70;;;;;;;15.25;74.64;99956.35;105851;1273;24275;-65
2022/09/08 01:50:43;;;;;;;16.30;8.00;;;;;;;15.24;74.84;99959.95;105866;1273;22537;-65
2022/09/08 01:53:15;;;;;;;19.60;8.00;;;;;;;15.22;74.79;99960.98;105627;1273;22529;-65
2022/09/08 01:55:46;;;;;;;17.20;7.50;;;;;;;15.19;74.76;99967.64;105619;1273;22556;-63
2022/09/08 01:58:18;;;;;;;17.80;7.20;;;;;;;15.17;74.88;99966.98;105774;1271;26594;-64
2022/09/08 02:00:49;;;;;;;17.40;7.70;;;;;;;15.14;74.78;99963.96;105750;1273;24100;-65
2022/09/08 02:03:21;;;;;;;18.70;7.30;;;;;;;15.13;74.81;99959.59;105676;1273;22541;-64
2022/09/08 02:05:52;;;;;;;19.80;7.30;;;;;;;15.12;74.87;99955.25;105719;1273;22644;-63
2022/09/08 02:08:24;;;;;;;18.30;7.80;;;;;;;15.11;75.10;99954.43;105852;1271;24123;-64
2022/09/08 02:11:01;;;;;;;18.70;8.30;;;;;;;15.10;75.15;99950.95;105840;1271;24428;-64
2022/09/08 02:13:33;;;;;;;22.70;7.80;;;;;;;15.08;75.35;99940.58;105815;1272;22553;-64
2022/09/08 02:16:07;;;;;;;17.30;6.60;;;;;;;15.07;75.23;99943.55;105781;1273;27552;-64
2022/09/08 02:18:39;;;;;;;16.50;7.20;;;;;;;15.06;75.42;99939.88;105776;1273;22541;-64
2022/09/08 02:21:13;;;;;;;17.90;7.50;;;;;;;15.04;75.43;99943.77;105709;1273;22540;-64
2022/09/08 02:23:46;;;;;;;18.30;6.70;;;;;;;15.03;75.56;99944.29;105900;1273;22531;-63
2022/09/08 02:26:20;;;;;;;16.30;7.30;;;;;;;15.00;75.46;99944.09;105799;1271;24248;-64
2022/09/08 02:28:53;;;;;;;18.00;7.10;;;;;;;14.97;75.59;99939.96;105714;1272;25264;-65
2022/09/08 02:31:25;;;;;;;16.90;7.00;;;;;;;14.96;75.60;99937.77;106260;1273;25375;-64
2022/09/08 02:33:57;;;;;;;20.40;6.40;;;;;;;14.94;75.63;99935.42;105612;1273;22602;-63
2022/09/08 02:36:29;;;;;;;18.40;7.30;;;;;;;14.91;75.58;99931.19;105690;1273;24282;-65
2022/09/08 02:39:00;;;;;;;17.50;7.50;;;;;;;14.91;75.69;99928.28;105908;1271;24388;-64
2022/09/08 02:41:33;;;;;;;17.60;7.40;;;;;;;14.90;75.76;99930.58;105723;1273;22531;-64
2022/09/08 02:44:05;;;;;;;20.20;7.60;;;;;;;14.87;75.84;99929.83;105820;1273;22537;-64
2022/09/08 02:46:36;;;;;;;18.30;7.00;;;;;;;14.84;76.00;99927.69;105739;1273;22548;-64
2022/09/08 02:49:10;;;;;;;17.90;7.20;;;;;;;14.80;76.01;99924.18;105805;1273;22625;-64
2022/09/08 02:51:41;;;;;;;19.50;7.30;;;;;;;14.78;75.95;99926.84;105818;1273;25550;-64
2022/09/08 02:54:12;;;;;;;17.40;7.10;;;;;;;14.77;75.94;99925.98;105800;1273;25594;-64
2022/09/08 02:56:45;;;;;;;24.50;7.20;;;;;;;14.75;76.11;99929.30;105854;1273;22560;-64
2022/09/08 02:59:17;;;;;;;17.00;7.40;;;;;;;14.72;76.14;99926.95;105783;1273;24298;-65
2022/09/08 03:01:48;;;;;;;17.40;7.60;;;;;;;14.69;76.33;99926.05;105855;1272;24448;-65
2022/09/08 03:04:21;;;;;;;16.60;6.80;;;;;;;14.65;76.19;99922.27;105713;1271;22538;-63
2022/09/08 03:06:53;;;;;;;17.40;7.20;;;;;;;14.62;76.34;99918.66;105579;1273;24270;-64
2022/09/08 03:09:24;;;;;;;15.70;7.30;;;;;;;14.59;76.28;99921.12;105613;1271;24965;-64
2022/09/08 03:11:55;;;;;;;19.80;7.30;;;;;;;14.59;76.32;99923.77;105734;1271;22549;-64
2022/09/08 03:14:27;;;;;;;20.50;8.10;;;;;;;14.56;76.43;99923.78;105912;1271;22557;-68
2022/09/08 03:16:58;;;;;;;15.80;7.00;;;;;;;14.55;76.41;99921.73;101833;1273;5430706;-63
2022/09/08 03:19:30;;;;;;;18.90;6.10;;;;;;;14.53;76.30;99923.13;105837;1273;22561;-64
2022/09/08 03:22:01;;;;;;;17.40;7.20;;;;;;;14.51;76.54;99920.68;106087;1274;25226;-63
2022/09/08 03:24:33;;;;;;;14.20;6.40;;;;;;;14.48;76.62;99917.41;105763;1273;25259;-63
2022/09/08 03:27:05;;;;;;;17.00;7.00;;;;;;;14.46;76.46;99914.91;105920;1273;24274;-64
2022/09/08 03:29:36;;;;;;;18.10;7.60;;;;;;;14.43;76.62;99908.23;105898;1273;24311;-64
2022/09/08 03:32:08;;;;;;;17.50;7.30;;;;;;;14.40;76.59;99904.82;106050;1273;22570;-64
2022/09/08 03:34:41;;;;;;;19.80;7.70;;;;;;;14.37;76.61;99899.20;106034;1273;25864;-64
2022/09/08 03:37:13;;;;;;;17.80;7.80;;;;;;;14.36;76.74;99900.74;105917;1273;22583;-63
2022/09/08 03:39:45;;;;;;;19.80;7.20;;;;;;;14.35;76.56;99904.12;105729;1273;22537;-65
2022/09/08 03:42:17;;;;;;;18.20;7.50;;;;;;;14.33;76.68;99895.73;105906;1273;22557;-64
2022/09/08 03:44:49;;;;;;;17.60;7.50;;;;;;;14.32;76.65;99889.52;105707;1273;22533;-64
2022/09/08 03:47:20;;;;;;;16.70;6.80;;;;;;;14.31;76.84;99897.38;105802;1271;22544;-64
2022/09/08 03:49:51;;;;;;;18.30;7.70;;;;;;;14.29;76.95;99898.70;105673;1273;22567;-64
2022/09/08 03:52:23;;;;;;;18.90;7.80;;;;;;;14.25;76.95;99893.58;105787;1273;22776;-63
2022/09/08 03:54:55;;;;;;;16.30;7.20;;;;;;;14.23;76.96;99890.16;105676;1273;22626;-64
2022/09/08 03:57:28;;;;;;;19.50;8.20;;;;;;;14.20;77.04;99889.41;105890;1273;25024;-64
2022/09/08 04:00:01;;;;;;;18.30;8.10;;;;;;;14.18;77.16;99888.34;105934;1274;22623;-64
2022/09/08 04:02:33;;;;;;;19.10;7.30;;;;;;;14.16;77.11;99888.23;105937;1274;22554;-64
2022/09/08 04:05:06;;;;;;;20.80;7.40;;;;;;;14.16;77.22;99883.12;105683;1271;24385;-63
2022/09/08 04:07:39;;;;;;;20.00;7.10;;;;;;;14.14;77.21;99878.80;105956;1274;23242;-64
2022/09/08 04:10:13;;;;;;;22.20;7.40;;;;;;;14.12;77.27;99879.67;105903;1274;23252;-64
2022/09/08 04:12:46;;;;;;;19.20;7.90;;;;;;;14.10;77.22;99878.48;105761;1271;25321;-63
2022/09/08 04:15:18;;;;;;;17.10;7.00;;;;;;;14.09;77.38;99882.98;105709;1274;25441;-64
2022/09/08 04:17:50;;;;;;;19.10;8.10;;;;;;;14.08;77.46;99886.25;105839;1274;23093;-64
2022/09/08 04:20:22;;;;;;;16.70;7.00;;;;;;;14.07;77.33;99879.98;105682;1271;22676;-63
2022/09/08 04:22:53;;;;;;;19.70;7.30;;;;;;;14.06;77.53;99872.88;106115;1271;24374;-64
2022/09/08 04:25:25;;;;;;;14.90;6.80;;;;;;;14.06;77.48;99873.55;105798;1274;22617;-64
2022/09/08 04:27:57;;;;;;;19.10;7.50;;;;;;;14.05;77.35;99877.88;105766;1271;22544;-63
2022/09/08 04:30:29;;;;;;;17.80;7.40;;;;;;;14.04;77.51;99875.09;105753;1271;22611;-65
2022/09/08 04:33:01;;;;;;;21.90;7.60;;;;;;;14.04;77.70;99883.30;105652;1271;25122;-64
2022/09/08 04:35:33;;;;;;;18.40;7.50;;;;;;;14.03;77.67;99887.34;105810;1273;25440;-64
2022/09/08 04:38:04;;;;;;;20.20;7.40;;;;;;;14.02;77.81;99883.40;105822;1274;22535;-64
2022/09/08 04:40:37;;;;;;;20.30;7.60;;;;;;;14.00;77.89;99885.55;105666;1273;22530;-64
2022/09/08 04:43:09;;;;;;;19.60;8.40;;;;;;;14.00;78.05;99885.35;105832;1274;24260;-65
2022/09/08 04:45:40;;;;;;;17.60;7.50;;;;;;;14.00;78.08;99888.30;105617;1272;22555;-65
2022/09/08 04:48:12;;;;;;;17.80;6.60;;;;;;;14.01;78.23;99892.28;105552;1271;22613;-64
2022/09/08 04:50:43;;;;;;;21.90;8.20;;;;;;;14.02;78.22;99889.42;105844;1274;22680;-65
2022/09/08 04:53:14;;;;;;;19.60;6.90;;;;;;;14.03;78.28;99891.66;105704;1271;22588;-64
2022/09/08 04:55:46;;;;;;;18.10;7.10;;;;;;;14.06;78.15;99889.88;105736;1274;24348;-64
2022/09/08 04:58:18;;;;;;;19.70;7.30;;;;;;;14.09;78.33;99890.17;105870;1273;22567;-65
2022/09/08 05:00:49;;;;;;;24.60;9.00;;;;;;;14.11;78.29;99887.94;105786;1274;25346;-65
2022/09/08 05:03:20;;;;;;;24.70;8.30;;;;;;;14.13;78.23;99888.08;105868;1273;24272;-64
2022/09/08 05:05:53;;;;;;;19.90;7.70;;;;;;;14.16;78.20;99884.45;105779;1274;22554;-64
2022/09/08 05:08:25;;;;;;;20.50;7.70;;;;;;;14.20;78.26;99882.66;105909;1273;22868;-64
2022/09/08 05:10:56;;;;;;;19.80;8.30;;;;;;;14.23;78.34;99881.54;105814;1271;22542;-64
2022/09/08 05:13:29;;;;;;;22.50;9.00;;;;;;;14.27;78.11;99878.38;105870;1273;24413;-64
2022/09/08 05:16:07;;;;;;;20.60;8.00;;;;;;;14.32;78.27;99870.27;105721;1274;22702;-64
2022/09/08 05:18:39;;;;;;;19.50;8.00;;;;;;;14.36;78.29;99870.66;105742;1272;25386;-64
2022/09/08 05:21:11;;;;;;;19.30;7.30;;;;;;;14.40;78.25;99870.71;105939;1274;22542;-65
2022/09/08 05:23:43;;;;;;;18.20;7.40;;;;;;;14.44;78.26;99874.64;105779;1274;24391;-64
2022/09/08 05:26:16;;;;;;;19.40;7.20;;;;;;;14.49;78.17;99876.92;105720;1274;22672;-64
2022/09/08 05:28:48;;;;;;;18.50;7.90;;;;;;;14.54;78.26;99876.64;105701;1274;22620;-64
2022/09/08 05:31:23;;;;;;;22.90;8.80;;;;;;;14.59;78.14;99876.63;106542;1271;22556;-64
2022/09/08 05:33:57;;;;;;;19.90;8.00;;;;;;;14.65;78.34;99866.91;106000;1274;22676;-65
2022/09/08 05:36:30;;;;;;;17.90;8.50;;;;;;;14.71;78.23;99866.84;105880;1271;27054;-66
2022/09/08 05:39:03;;;;;;;19.70;8.20;;;;;;;14.77;78.30;99869.20;105754;1271;22594;-65
2022/09/08 05:41:35;;;;;;;24.90;8.50;;;;;;;14.81;78.24;99868.54;105727;1271;22575;-65
2022/09/08 05:44:08;;;;;;;21.90;8.60;;;;;;;14.86;78.29;99869.50;106009;1271;23163;-64
2022/09/08 05:46:39;;;;;;;22.00;8.20;;;;;;;14.91;78.21;99868.44;105652;1271;22552;-64
2022/09/08 05:49:11;;;;;;;26.90;10.00;;;;;;;14.95;78.22;99861.38;105686;1273;22771;-65
2022/09/08 05:51:42;;;;;;;20.50;7.70;;;;;;;15.01;78.33;99857.92;105863;1274;25325;-64
2022/09/08 05:54:15;;;;;;;23.00;8.30;;;;;;;15.07;78.18;99862.13;105751;1273;24286;-64
2022/09/08 05:56:46;;;;;;;22.20;8.10;;;;;;;15.12;78.20;99854.08;105793;1274;22534;-66
2022/09/08 05:59:18;;;;;;;21.50;9.00;;;;;;;15.19;78.20;99847.44;105807;1274;26510;-65
2022/09/08 06:01:49;;;;;;;23.60;7.60;;;;;;;15.26;78.13;99853.27;105664;1274;23027;-65
2022/09/08 06:04:21;;;;;;;23.50;8.90;;;;;;;15.33;78.09;99858.09;105870;1274;23445;-65
2022/09/08 06:06:54;;;;;;;21.30;7.60;;;;;;;15.39;77.92;99859.23;105834;1274;25369;-66
2022/09/08 06:09:25;;;;;;;20.90;8.90;;;;;;;15.45;77.90;99852.92;105800;1273;22546;-65
2022/09/08 06:11:57;;;;;;;22.50;8.50;;;;;;;15.51;77.99;99852.17;105797;1274;24419;-64
2022/09/08 06:14:28;;;;;;;21.90;9.50;;;;;;;15.57;77.97;99849.92;106095;1274;22596;-65
2022/09/08 06:17:00;;;;;;;20.50;8.50;;;;;;;15.64;77.96;99849.35;106041;1271;22569;-65
2022/09/08 06:19:31;;;;;;;23.00;7.50;;;;;;;15.71;78.09;99844.70;105744;1274;25262;-65
2022/09/08 06:22:03;;;;;;;20.60;9.30;;;;;;;15.78;77.94;99840.64;105757;1273;22686;-65
2022/09/08 06:24:34;;;;;;;25.10;10.10;;;;;;;15.86;77.75;99837.77;105724;1273;22624;-65
2022/09/08 06:27:16;;;;;;;23.40;9.70;;;;;;;15.94;77.60;99838.71;105921;1273;22579;-65
2022/09/08 06:30:02;;;;;;;22.40;9.10;;;;;;;16.02;77.70;99840.95;105668;1273;22562;-65
2022/09/08 06:32:38;;;;;;;21.80;8.80;;;;;;;16.12;78.01;99837.92;105828;1273;24438;-66
2022/09/08 06:35:15;;;;;;;22.70;8.70;;;;;;;16.22;77.75;99836.35;105757;1274;25609;-65
2022/09/08 06:37:52;;;;;;;20.70;8.30;;;;;;;16.33;77.58;99834.59;105935;1274;22580;-65
2022/09/08 06:40:28;;;;;;;24.50;8.60;;;;;;;16.42;77.64;99832.70;105766;1271;22666;-65
2022/09/08 06:43:06;;;;;;;23.60;8.60;;;;;;;16.51;77.64;99830.45;105894;1273;24420;-64
2022/09/08 06:45:42;;;;;;;25.40;9.50;;;;;;;16.61;77.44;99823.95;105905;1273;22612;-65
2022/09/08 06:48:26;;;;;;;23.70;9.40;;;;;;;16.70;77.23;99817.33;105665;1273;24043;-64
2022/09/08 06:51:08;;;;;;;24.10;9.80;;;;;;;16.80;77.33;99817.77;105787;1273;22553;-65
2022/09/08 06:53:43;;;;;;;22.70;9.60;;;;;;;16.93;77.71;99820.92;105769;1273;22574;-64
2022/09/08 06:56:32;;;;;;;21.90;9.00;;;;;;;17.07;77.58;99820.48;105783;1273;22631;-65
2022/09/08 06:59:07;;;;;;;23.20;8.50;;;;;;;17.19;77.43;99816.50;105824;1273;22577;-66
2022/09/08 07:01:45;;;;;;;21.50;8.00;;;;;;;17.32;77.06;99816.69;105655;1271;22652;-65
2022/09/08 07:04:31;;;;;;;20.80;10.00;;;;;;;17.42;76.81;99813.59;105739;1273;22619;-65
2022/09/08 07:07:12;;;;;;;20.40;9.10;;;;;;;17.54;76.61;99816.92;105951;1273;24232;-65
2022/09/08 07:09:49;;;;;;;18.40;8.30;;;;;;;17.64;76.35;99814.81;105866;1273;22541;-64
2022/09/08 07:12:34;;;;;;;18.00;7.70;;;;;;;17.74;76.42;99812.95;105779;1273;25302;-66
2022/09/08 07:15:26;;;;;;;21.00;8.10;;;;;;;17.85;76.48;99814.97;105821;1273;22671;-65
2022/09/08 07:18:07;;;;;;;22.30;8.90;;;;;;;17.97;76.12;99808.23;105761;1273;24390;-64
2022/09/08 07:20:41;;;;;;;22.70;8.50;;;;;;;18.06;75.79;99805.86;105806;1273;22605;-66
2022/09/08 07:23:17;;;;;;;22.80;8.80;;;;;;;18.14;75.67;99813.16;105775;1273;25383;-65
2022/09/08 07:25:55;;;;;;;21.50;8.40;;;;;;;18.24;75.46;99811.34;105898;1273;22606;-65
2022/09/08 07:28:33;;;;;;;23.00;8.60;;;;;;;18.31;75.33;99805.64;105747;1271;25311;-65
2022/09/08 07:31:06;;;;;;;19.30;7.10;;;;;;;18.37;74.97;99803.70;105698;1273;25406;-65
2022/09/08 07:33:41;;;;;;;21.20;8.10;;;;;;;18.41;74.73;99795.29;105692;1273;22545;-65
2022/09/08 07:36:22;;;;;;;18.60;7.60;;;;;;;18.45;74.71;99789.42;105706;1273;22756;-65
2022/09/08 07:38:54;;;;;;;24.90;8.50;;;;;;;18.51;74.43;99792.58;105718;1273;22649;-65
2022/09/08 07:41:31;;;;;;;18.20;7.60;;;;;;;18.57;74.41;99792.92;105671;1271;26410;-66
2022/09/08 07:44:10;;;;;;;22.70;7.10;;;;;;;18.64;74.35;99794.59;105678;1271;22566;-65
2022/09/08 07:46:53;;;;;;;19.60;8.30;;;;;;;18.71;74.29;99800.00;105664;1273;22749;-65
2022/09/08 07:49:30;;;;;;;17.50;7.40;;;;;;;18.78;74.25;99801.52;105808;1270;22635;-65
2022/09/08 07:52:14;;;;;;;16.20;7.70;;;;;;;18.89;74.42;99803.46;105781;1273;22540;-67
2022/09/08 07:55:03;;;;;;;20.40;8.20;;;;;;;18.97;74.26;99793.73;105801;1273;22558;-66
2022/09/08 07:57:48;;;;;;;21.30;8.40;;;;;;;19.05;73.99;99795.23;105698;1273;22639;-66
2022/09/08 08:00:23;;;;;;;19.90;7.70;;;;;;;19.11;73.96;99794.98;105632;1273;24393;-66
2022/09/08 08:03:22;;;;;;;19.50;8.20;;;;;;;19.21;73.73;99796.42;105673;1272;22776;-65
2022/09/08 08:05:58;;;;;;;16.30;7.20;;;;;;;19.29;73.61;99790.80;105692;1273;24312;-66
2022/09/08 08:08:46;;;;;;;19.10;7.50;;;;;;;19.38;73.75;99789.15;105879;1271;24329;-66
2022/09/08 08:11:26;;;;;;;19.50;7.90;;;;;;;19.48;73.85;99786.04;105785;1271;24364;-67
2022/09/08 08:14:05;;;;;;;;;;;;;;;19.54;73.61;99783.92;105911;1272;22551;-66
2022/09/08 08:16:48;;;;;;;19.00;7.70;;;;;;;19.61;73.61;99786.77;105787;1271;22947;-67
2022/09/08 08:19:37;;;;;;;18.40;7.30;;;;;;;19.70;73.76;99784.95;105743;1273;24233;-67
2022/09/08 08:22:16;;;;;;;23.20;8.70;;;;;;;19.83;73.82;99783.63;105834;1273;25260;-66
2022/09/08 08:24:59;;;;;;;17.40;7.80;;;;;;;19.96;73.84;99783.60;105755;1273;22811;-66
2022/09/08 08:27:37;;;;;;;18.60;7.70;;;;;;;20.09;73.93;99781.00;105653;1273;22701;-66
2022/09/08 08:30:21;;;;;;;19.10;7.50;;;;;;;20.22;73.65;99780.46;105685;1273;25524;-66
2022/09/08 08:32:57;;;;;;;22.00;8.40;;;;;;;20.33;73.45;99776.61;105784;1273;22659;-68
2022/09/08 08:35:38;;;;;;;18.50;7.60;;;;;;;20.41;73.21;99774.42;105795;1271;23970;-66
2022/09/08 08:38:16;;;;;;;20.80;8.50;;;;;;;20.56;73.33;99771.70;105772;1271;25513;-66
2022/09/08 08:40:58;;;;;;;17.10;7.10;;;;;;;20.70;73.08;99774.75;105711;1273;25415;-67
2022/09/08 08:44:01;;;;;;;21.50;7.60;;;;;;;20.82;72.71;99770.47;105833;1273;22890;-67
2022/09/08 08:46:46;;;;;;;15.80;7.20;;;;;;;20.94;72.28;99761.38;105592;1271;22563;-67
2022/09/08 08:49:39;;;;;;;17.70;6.90;;;;;;;21.04;72.39;99756.67;105832;1273;23195;-67
2022/09/08 08:52:30;;;;;;;16.20;7.60;;;;;;;21.14;72.07;99750.58;105767;1273;23273;-66
2022/09/08 08:55:25;;;;;;;17.00;6.80;;;;;;;21.23;71.74;99744.02;105729;1273;22689;-67
2022/09/08 08:58:08;;;;;;;14.60;6.80;;;;;;;21.30;71.46;99740.64;105649;1273;22556;-67
2022/09/08 09:00:46;;;;;;;16.80;7.20;;;;;;;21.41;71.80;99735.25;105731;1273;25430;-67
2022/09/08 09:03:34;;;;;;;16.30;7.00;;;;;;;21.53;71.61;99741.25;105734;1273;24297;-67
2022/09/08 09:06:29;;;;;;;18.30;6.90;;;;;;;21.65;71.45;99741.10;105777;1273;22535;-67
2022/09/08 09:09:30;;;;;;;18.20;6.40;;;;;;;21.73;70.87;99742.30;105867;1273;22601;-67
2022/09/08 09:12:20;;;;;;;18.80;7.50;;;;;;;21.80;70.55;99734.70;105834;1276;25537;-67
2022/09/08 09:15:30;;;;;;;15.20;6.00;;;;;;;21.87;70.56;99731.08;105642;1276;23997;-69
2022/09/08 09:18:49;;;;;;;16.40;7.60;;;;;;;21.98;70.52;99734.10;105469;1276;24460;-67
2022/09/08 09:21:27;;;;;;;15.40;6.50;;;;;;;22.08;69.86;99734.95;105300;1281;25415;-68
2022/09/08 09:24:13;;;;;;;14.50;6.60;;;;;;;22.15;69.93;99734.29;105374;1281;22997;-67
2022/09/08 09:26:49;;;;;;;15.30;5.70;;;;;;;22.23;69.50;99737.30;105480;1281;23268;-69
2022/09/08 09:29:24;;;;;;;17.70;7.20;;;;;;;22.30;69.18;99732.24;105839;1281;22818;-69
2022/09/08 09:32:18;;;;;;;17.60;6.60;;;;;;;22.39;69.26;99726.67;105736;1281;22572;-69
2022/09/08 09:35:21;;;;;;;15.00;6.90;;;;;;;22.49;69.15;99720.09;104564;1287;24424;-70
2022/09/08 09:38:27;;;;;;;14.20;6.00;;;;;;;22.59;68.71;99717.67;103889;1290;23906;-67
2022/09/08 09:41:21;;;;;;;14.50;6.90;;;;;;;22.70;68.58;99715.40;104144;1290;24996;-67
2022/09/08 09:44:16;;;;;;;18.30;6.90;;;;;;;22.83;68.51;99716.67;104004;1290;22713;-67
2022/09/08 09:47:21;;;;;;;13.40;6.30;;;;;;;22.97;68.40;99715.22;103990;1290;22579;-68
2022/09/08 09:50:18;;;;;;;16.30;6.00;;;;;;;23.09;68.09;99719.89;104186;1287;22572;-68
2022/09/08 09:52:59;;;;;;;14.70;6.40;;;;;;;23.19;68.01;99716.64;104673;1284;25884;-67
2022/09/08 09:55:54;;;;;;;14.40;6.30;;;;;;;23.30;67.78;99712.31;105004;1284;25254;-67
2022/09/08 09:58:46;;;;;;;15.90;6.80;;;;;;;23.43;67.16;99708.98;105135;1284;22567;-68
2022/09/08 10:01:44;;;;;;;14.20;6.80;;;;;;;23.49;67.02;99704.84;105023;1284;25374;-67
2022/09/08 10:05:06;;;;;;;14.60;6.90;;;;;;;23.56;66.75;99701.27;104868;1284;22577;-67
2022/09/08 10:08:07;;;;;;;18.40;7.20;;;;;;;23.65;66.59;99696.41;104877;1284;22625;-68
2022/09/08 10:10:55;;;;;;;16.30;6.70;;;;;;;23.71;66.16;99690.21;104811;1284;22805;-68
2022/09/08 10:14:05;;;;;;;14.20;6.40;;;;;;;23.76;65.86;99690.52;105387;1276;25261;-69
2022/09/08 10:17:16;;;;;;;15.70;7.00;;;;;;;23.82;65.57;99687.36;105870;1273;22677;-68
2022/09/08 10:20:16;;;;;;;16.20;7.70;;;;;;;23.88;65.59;99684.95;105679;1273;27288;-67
2022/09/08 10:23:20;;;;;;;15.40;6.80;;;;;;;23.93;65.48;99680.98;105718;1273;25517;-67
2022/09/08 10:26:15;;;;;;;14.40;7.30;;;;;;;24.01;65.50;99683.23;105798;1273;24429;-68
2022/09/08 10:29:09;;;;;;;19.50;7.60;;;;;;;24.06;65.14;99678.12;105711;1271;25493;-67
2022/09/08 10:32:16;;;;;;;14.90;7.60;;;;;;;24.11;64.73;99672.65;105721;1273;22532;-66
2022/09/08 10:35:14;;;;;;;15.40;6.80;;;;;;;24.20;64.57;99664.03;105666;1273;22868;-67
2022/09/08 10:38:24;;;;;;;13.90;7.00;;;;;;;24.29;64.37;99661.77;105753;1273;22535;-68
2022/09/08 10:41:13;;;;;;;12.30;6.70;;;;;;;24.45;64.03;99662.92;105717;1273;24390;-67
2022/09/08 10:44:34;;;;;;;13.40;6.90;;;;;;;24.59;63.83;99664.34;105610;1271;22737;-67
2022/09/08 10:47:45;;;;;;;14.20;7.70;;;;;;;24.69;63.13;99663.71;105611;1271;25314;-69
2022/09/08 10:50:21;;;;;;;14.80;6.30;;;;;;;24.75;62.64;99665.83;105489;1276;22621;-68
2022/09/08 10:53:18;;;;;;;16.60;7.80;;;;;;;24.81;62.71;99671.06;105448;1276;22553;-68
2022/09/08 10:56:14;;;;;;;13.90;7.30;;;;;;;24.92;62.85;99667.30;105469;1276;22556;-68
2022/09/08 10:59:27;;;;;;;13.70;7.10;;;;;;;25.06;62.65;99663.14;105324;1276;22772;-68
2022/09/08 11:02:33;;;;;;;12.50;6.60;;;;;;;25.16;62.36;99659.98;105395;1274;22759;-68
2022/09/08 11:05:48;;;;;;;13.50;7.30;;;;;;;25.26;62.07;99655.44;105702;1274;22562;-68
2022/09/08 11:09:07;;;;;;;12.90;6.20;;;;;;;25.44;62.28;99654.89;105716;1276;22574;-68
2022/09/08 11:12:29;;;;;;;11.90;6.00;;;;;;;25.58;61.32;99652.14;105212;1281;25573;-68
2022/09/08 11:15:37;;;;;;;15.40;6.30;;;;;;;25.65;60.82;99653.91;104770;1284;25544;-68
2022/09/08 11:18:27;;;;;;;16.10;7.00;;;;;;;25.72;60.64;99651.59;104700;1284;23823;-69
2022/09/08 11:21:01;;;;;;;12.80;5.70;;;;;;;25.75;60.45;99649.46;105087;1284;22579;-68
2022/09/08 11:23:43;;;;;;;14.30;7.20;;;;;;;25.78;60.48;99651.91;104961;1284;23245;-69
2022/09/08 11:26:31;;;;;;;13.30;6.30;;;;;;;25.79;60.25;99648.86;104832;1284;22651;-69
2022/09/08 11:29:09;;;;;;;14.70;7.20;;;;;;;25.78;59.90;99649.35;104813;1281;25572;-69
2022/09/08 11:31:53;;;;;;;16.20;6.90;;;;;;;25.76;59.44;99645.52;104844;1281;22573;-68
2022/09/08 11:35:01;;;;;;;13.00;6.50;;;;;;;25.75;59.69;99645.16;104884;1281;25418;-68
2022/09/08 11:38:08;;;;;;;13.70;7.10;;;;;;;25.76;59.61;99641.92;104795;1281;25564;-68
2022/09/08 11:41:21;;;;;;;16.00;6.30;;;;;;;25.79;60.05;99645.86;104965;1281;24240;-68
2022/09/08 11:44:21;;;;;;;14.90;6.80;;;;;;;25.83;60.17;99635.73;104875;1287;27473;-69
2022/09/08 11:47:10;;;;;;;14.50;6.40;;;;;;;25.89;59.79;99636.20;104966;1287;22560;-69
2022/09/08 11:50:15;;;;;;;10.20;5.60;;;;;;;26.01;59.60;99630.26;105439;1276;22682;-69
2022/09/08 11:53:15;;;;;;;13.20;6.10;;;;;;;26.20;59.40;99624.10;105926;1276;25321;-69
2022/09/08 11:56:14;;;;;;;13.40;6.00;;;;;;;26.33;58.80;99618.05;105813;1276;24343;-69
2022/09/08 11:59:03;;;;;;;14.00;6.10;;;;;;;26.39;58.79;99608.96;105894;1276;25510;-69
2022/09/08 12:01:56;;;;;;;11.80;5.80;;;;;;;26.48;58.11;99600.81;105845;1276;24307;-68
2022/09/08 12:04:53;;;;;;;13.50;6.90;;;;;;;26.53;58.41;99596.46;105932;1276;22543;-69
2022/09/08 12:07:54;;;;;;;14.70;6.10;;;;;;;26.58;58.11;99591.52;106090;1275;24246;-69
2022/09/08 12:10:45;;;;;;;17.20;6.20;;;;;;;26.59;57.91;99588.04;106052;1276;22689;-70
2022/09/08 12:13:23;;;;;;;12.80;7.10;;;;;;;26.58;57.70;99588.48;106085;1276;23107;-69
2022/09/08 12:16:15;;;;;;;16.10;6.50;;;;;;;26.56;57.69;99583.95;105835;1276;22534;-70
2022/09/08 12:19:09;;;;;;;11.50;6.00;;;;;;;26.56;57.65;99574.38;105786;1276;23064;-70
2022/09/08 12:22:09;;;;;;;14.00;6.90;;;;;;;26.59;57.95;99562.96;106036;1272;25771;-70
2022/09/08 12:24:58;;;;;;;11.60;6.20;;;;;;;26.63;57.41;99555.55;106104;1272;22587;-70